sensor_id;sensor_type;location;lat;lon;timestamp;pressure;altitude;pressure_sealevel;temperature;humidity
34506;BME280;20748;42.632;23.198;2023-02-10T00:00:40;93542.75;;;-7.97;69.52
34506;BME280;20748;42.632;23.198;2023-02-10T00:03:13;93538.66;;;-7.90;69.36
34506;BME280;20748;42.632;23.198;2023-02-10T00:05:45;93528.72;;;-7.91;69.14
34506;BME280;20748;42.632;23.198;2023-02-10T00:08:19;93533.81;;;-7.83;69.11
34506;BME280;20748;42.632;23.198;2023-02-10T00:10:51;93530.81;;;-8.05;68.54
34506;BME280;20748;42.632;23.198;2023-02-10T00:13:28;93523.06;;;-8.03;68.13
34506;BME280;20748;42.632;23.198;2023-02-10T00:16:02;93513.06;;;-8.05;68.74
34506;BME280;20748;42.632;23.198;2023-02-10T00:18:34;93520.16;;;-8.09;67.72
34506;BME280;20748;42.632;23.198;2023-02-10T00:21:08;93517.44;;;-8.15;68.76
34506;BME280;20748;42.632;23.198;2023-02-10T00:23:42;93518.22;;;-8.15;68.64
34506;BME280;20748;42.632;23.198;2023-02-10T00:26:15;93511.56;;;-8.16;68.62
34506;BME280;20748;42.632;23.198;2023-02-10T00:28:48;93507.94;;;-8.13;68.96
34506;BME280;20748;42.632;23.198;2023-02-10T00:31:21;93510.47;;;-8.13;68.25
34506;BME280;20748;42.632;23.198;2023-02-10T00:33:54;93504.78;;;-8.15;68.35
34506;BME280;20748;42.632;23.198;2023-02-10T00:36:26;93502.53;;;-8.18;69.73
34506;BME280;20748;42.632;23.198;2023-02-10T00:39:00;93497.19;;;-8.15;67.82
34506;BME280;20748;42.632;23.198;2023-02-10T00:41:33;93489.94;;;-8.28;68.18
34506;BME280;20748;42.632;23.198;2023-02-10T00:44:05;93493.25;;;-8.28;68.35
34506;BME280;20748;42.632;23.198;2023-02-10T00:46:38;93490.56;;;-8.26;68.74
34506;BME280;20748;42.632;23.198;2023-02-10T00:49:10;93489.44;;;-8.32;68.32
34506;BME280;20748;42.632;23.198;2023-02-10T00:51:43;93488.56;;;-8.41;68.42
34506;BME280;20748;42.632;23.198;2023-02-10T00:54:16;93477.00;;;-8.43;68.80
34506;BME280;20748;42.632;23.198;2023-02-10T00:56:50;93474.97;;;-8.40;68.55
34506;BME280;20748;42.632;23.198;2023-02-10T00:59:22;93478.09;;;-8.46;68.04
34506;BME280;20748;42.632;23.198;2023-02-10T01:01:55;93471.22;;;-8.54;68.17
34506;BME280;20748;42.632;23.198;2023-02-10T01:04:27;93468.47;;;-8.60;68.83
34506;BME280;20748;42.632;23.198;2023-02-10T01:07:00;93475.66;;;-8.56;68.08
34506;BME280;20748;42.632;23.198;2023-02-10T01:09:36;93467.47;;;-8.68;69.41
34506;BME280;20748;42.632;23.198;2023-02-10T01:12:08;93472.38;;;-8.66;69.90
34506;BME280;20748;42.632;23.198;2023-02-10T01:14:40;93472.47;;;-8.76;69.68
34506;BME280;20748;42.632;23.198;2023-02-10T01:17:13;93468.47;;;-8.79;69.22
34506;BME280;20748;42.632;23.198;2023-02-10T01:19:48;93463.50;;;-8.98;70.11
34506;BME280;20748;42.632;23.198;2023-02-10T01:22:23;93463.69;;;-9.00;70.13
34506;BME280;20748;42.632;23.198;2023-02-10T01:24:56;93464.69;;;-8.93;70.75
34506;BME280;20748;42.632;23.198;2023-02-10T01:27:28;93465.06;;;-8.87;70.90
34506;BME280;20748;42.632;23.198;2023-02-10T01:30:01;93464.69;;;-8.93;71.30
34506;BME280;20748;42.632;23.198;2023-02-10T01:32:33;93454.84;;;-8.96;71.07
34506;BME280;20748;42.632;23.198;2023-02-10T01:35:08;93455.00;;;-8.97;71.29
34506;BME280;20748;42.632;23.198;2023-02-10T01:37:40;93454.34;;;-8.99;72.08
34506;BME280;20748;42.632;23.198;2023-02-10T01:40:14;93454.81;;;-8.86;71.75
34506;BME280;20748;42.632;23.198;2023-02-10T01:42:47;93457.03;;;-8.83;72.41
34506;BME280;20748;42.632;23.198;2023-02-10T01:45:22;93440.41;;;-9.04;71.84
34506;BME280;20748;42.632;23.198;2023-02-10T01:47:56;93442.94;;;-9.04;72.21
34506;BME280;20748;42.632;23.198;2023-02-10T01:50:34;93444.22;;;-8.99;72.24
34506;BME280;20748;42.632;23.198;2023-02-10T01:53:08;93454.28;;;-9.08;71.90
34506;BME280;20748;42.632;23.198;2023-02-10T01:55:46;93440.59;;;-9.15;72.32
34506;BME280;20748;42.632;23.198;2023-02-10T01:58:22;93445.88;;;-9.08;73.32
34506;BME280;20748;42.632;23.198;2023-02-10T02:00:56;93450.09;;;-8.99;73.51
34506;BME280;20748;42.632;23.198;2023-02-10T02:03:29;93439.84;;;-8.97;72.92
34506;BME280;20748;42.632;23.198;2023-02-10T02:06:01;93439.41;;;-8.93;72.09
34506;BME280;20748;42.632;23.198;2023-02-10T02:08:34;93433.69;;;-8.95;72.34
34506;BME280;20748;42.632;23.198;2023-02-10T02:11:19;93433.16;;;-8.98;71.51
34506;BME280;20748;42.632;23.198;2023-02-10T02:14:05;93436.13;;;-9.03;72.11
34506;BME280;20748;42.632;23.198;2023-02-10T02:16:57;93435.69;;;-8.98;72.14
34506;BME280;20748;42.632;23.198;2023-02-10T02:20:15;93437.00;;;-8.94;71.71
34506;BME280;20748;42.632;23.198;2023-02-10T02:23:17;93434.84;;;-8.89;71.39
34506;BME280;20748;42.632;23.198;2023-02-10T02:26:13;93431.81;;;-8.93;72.62
34506;BME280;20748;42.632;23.198;2023-02-10T02:29:05;93437.75;;;-8.84;72.31
34506;BME280;20748;42.632;23.198;2023-02-10T02:31:51;93431.81;;;-8.93;71.54
34506;BME280;20748;42.632;23.198;2023-02-10T02:34:31;93434.41;;;-9.02;72.62
34506;BME280;20748;42.632;23.198;2023-02-10T02:37:10;93433.47;;;-9.01;73.62
34506;BME280;20748;42.632;23.198;2023-02-10T02:39:48;93431.56;;;-8.99;73.55
34506;BME280;20748;42.632;23.198;2023-02-10T02:42:23;93429.78;;;-8.89;72.83
34506;BME280;20748;42.632;23.198;2023-02-10T02:44:59;93420.50;;;-8.98;72.12
34506;BME280;20748;42.632;23.198;2023-02-10T02:47:48;93424.00;;;-8.99;71.59
34506;BME280;20748;42.632;23.198;2023-02-10T02:50:30;93421.97;;;-9.14;71.25
34506;BME280;20748;42.632;23.198;2023-02-10T02:53:13;93420.50;;;-9.17;71.53
34506;BME280;20748;42.632;23.198;2023-02-10T02:55:57;93427.78;;;-9.13;71.25
34506;BME280;20748;42.632;23.198;2023-02-10T02:58:41;93423.31;;;-9.20;71.29
34506;BME280;20748;42.632;23.198;2023-02-10T03:01:21;93423.47;;;-9.21;71.85
34506;BME280;20748;42.632;23.198;2023-02-10T03:03:58;93427.03;;;-9.14;72.24
34506;BME280;20748;42.632;23.198;2023-02-10T03:06:30;93426.88;;;-9.12;71.32
34506;BME280;20748;42.632;23.198;2023-02-10T03:09:03;93416.66;;;-9.21;72.59
34506;BME280;20748;42.632;23.198;2023-02-10T03:11:35;93422.41;;;-9.19;71.90
34506;BME280;20748;42.632;23.198;2023-02-10T03:14:10;93423.97;;;-9.18;72.55
34506;BME280;20748;42.632;23.198;2023-02-10T03:16:42;93425.56;;;-9.17;72.54
34506;BME280;20748;42.632;23.198;2023-02-10T03:19:15;93431.00;;;-9.11;71.62
34506;BME280;20748;42.632;23.198;2023-02-10T03:21:48;93429.13;;;-9.09;72.20
34506;BME280;20748;42.632;23.198;2023-02-10T03:24:21;93425.38;;;-9.05;70.25
34506;BME280;20748;42.632;23.198;2023-02-10T03:26:53;93427.41;;;-9.09;70.95
34506;BME280;20748;42.632;23.198;2023-02-10T03:29:26;93424.69;;;-9.25;70.95
34506;BME280;20748;42.632;23.198;2023-02-10T03:31:58;93427.84;;;-9.23;70.98
34506;BME280;20748;42.632;23.198;2023-02-10T03:34:34;93421.44;;;-9.18;71.22
34506;BME280;20748;42.632;23.198;2023-02-10T03:37:06;93424.50;;;-9.14;71.12
34506;BME280;20748;42.632;23.198;2023-02-10T03:39:39;93415.59;;;-9.18;71.50
34506;BME280;20748;42.632;23.198;2023-02-10T03:42:11;93404.84;;;-9.20;71.29
34506;BME280;20748;42.632;23.198;2023-02-10T03:44:44;93406.88;;;-9.34;72.16
34506;BME280;20748;42.632;23.198;2023-02-10T03:47:16;93400.25;;;-9.35;72.88
34506;BME280;20748;42.632;23.198;2023-02-10T03:49:49;93402.72;;;-9.25;72.33
34506;BME280;20748;42.632;23.198;2023-02-10T03:52:22;93390.88;;;-9.24;71.80
34506;BME280;20748;42.632;23.198;2023-02-10T03:54:54;93396.06;;;-9.26;70.66
34506;BME280;20748;42.632;23.198;2023-02-10T03:57:27;93393.97;;;-9.31;71.55
34506;BME280;20748;42.632;23.198;2023-02-10T03:59:59;93398.94;;;-9.39;71.16
34506;BME280;20748;42.632;23.198;2023-02-10T04:02:33;93391.72;;;-9.34;71.17
34506;BME280;20748;42.632;23.198;2023-02-10T04:05:07;93392.94;;;-9.38;71.26
34506;BME280;20748;42.632;23.198;2023-02-10T04:07:39;93397.34;;;-9.40;70.87
34506;BME280;20748;42.632;23.198;2023-02-10T04:10:12;93392.72;;;-9.45;69.80
34506;BME280;20748;42.632;23.198;2023-02-10T04:12:44;93388.97;;;-9.40;69.34
34506;BME280;20748;42.632;23.198;2023-02-10T04:15:17;93390.56;;;-9.39;69.51
34506;BME280;20748;42.632;23.198;2023-02-10T04:17:50;93383.78;;;-9.39;70.25
34506;BME280;20748;42.632;23.198;2023-02-10T04:20:23;93396.94;;;-9.35;70.27
34506;BME280;20748;42.632;23.198;2023-02-10T04:22:56;93384.81;;;-9.32;70.09
34506;BME280;20748;42.632;23.198;2023-02-10T04:25:28;93386.38;;;-9.31;72.09
34506;BME280;20748;42.632;23.198;2023-02-10T04:28:01;93385.44;;;-9.30;72.38
34506;BME280;20748;42.632;23.198;2023-02-10T04:30:33;93377.72;;;-9.28;72.26
34506;BME280;20748;42.632;23.198;2023-02-10T04:33:06;93381.06;;;-9.27;70.51
34506;BME280;20748;42.632;23.198;2023-02-10T04:35:39;93392.00;;;-9.37;70.11
34506;BME280;20748;42.632;23.198;2023-02-10T04:38:11;93387.16;;;-9.48;69.25
34506;BME280;20748;42.632;23.198;2023-02-10T04:40:44;93367.09;;;-9.78;69.18
34506;BME280;20748;42.632;23.198;2023-02-10T04:43:17;93391.25;;;-9.75;69.56
34506;BME280;20748;42.632;23.198;2023-02-10T04:45:49;93391.78;;;-9.72;70.05
34506;BME280;20748;42.632;23.198;2023-02-10T04:48:22;93393.38;;;-9.71;70.07
34506;BME280;20748;42.632;23.198;2023-02-10T04:50:55;93398.25;;;-9.69;69.73
34506;BME280;20748;42.632;23.198;2023-02-10T04:53:27;93400.16;;;-9.71;71.22
34506;BME280;20748;42.632;23.198;2023-02-10T04:56:00;93405.44;;;-9.64;70.77
34506;BME280;20748;42.632;23.198;2023-02-10T04:58:33;93400.25;;;-9.63;70.30
34506;BME280;20748;42.632;23.198;2023-02-10T05:01:05;93408.34;;;-9.59;70.75
34506;BME280;20748;42.632;23.198;2023-02-10T05:03:38;93403.19;;;-9.67;69.54
34506;BME280;20748;42.632;23.198;2023-02-10T05:06:13;93412.41;;;-9.76;70.26
34506;BME280;20748;42.632;23.198;2023-02-10T05:08:46;93408.94;;;-9.75;70.41
34506;BME280;20748;42.632;23.198;2023-02-10T05:11:21;93416.16;;;-9.80;70.67
34506;BME280;20748;42.632;23.198;2023-02-10T05:13:53;93413.28;;;-9.95;71.34
34506;BME280;20748;42.632;23.198;2023-02-10T05:16:25;93411.91;;;-9.90;72.09
34506;BME280;20748;42.632;23.198;2023-02-10T05:18:58;93423.38;;;-9.95;72.05
34506;BME280;20748;42.632;23.198;2023-02-10T05:21:31;93422.28;;;-9.83;71.03
34506;BME280;20748;42.632;23.198;2023-02-10T05:24:04;93425.59;;;-9.82;70.77
34506;BME280;20748;42.632;23.198;2023-02-10T05:26:37;93433.31;;;-9.94;69.96
34506;BME280;20748;42.632;23.198;2023-02-10T05:29:10;93449.53;;;-9.97;69.91
34506;BME280;20748;42.632;23.198;2023-02-10T05:31:42;93440.28;;;-10.06;71.51
34506;BME280;20748;42.632;23.198;2023-02-10T05:34:15;93441.47;;;-10.10;71.47
34506;BME280;20748;42.632;23.198;2023-02-10T05:36:48;93434.97;;;-10.13;72.40
34506;BME280;20748;42.632;23.198;2023-02-10T05:39:21;93442.53;;;-10.03;72.11
34506;BME280;20748;42.632;23.198;2023-02-10T05:41:58;93447.97;;;-9.98;71.21
34506;BME280;20748;42.632;23.198;2023-02-10T05:44:30;93452.63;;;-10.03;70.69
34506;BME280;20748;42.632;23.198;2023-02-10T05:47:03;93452.38;;;-10.09;70.62
34506;BME280;20748;42.632;23.198;2023-02-10T05:49:36;93444.13;;;-10.12;71.38
34506;BME280;20748;42.632;23.198;2023-02-10T05:52:09;93446.66;;;-10.12;71.03
34506;BME280;20748;42.632;23.198;2023-02-10T05:54:42;93449.19;;;-10.12;71.66
34506;BME280;20748;42.632;23.198;2023-02-10T05:57:14;93456.50;;;-10.08;71.87
34506;BME280;20748;42.632;23.198;2023-02-10T05:59:47;93454.91;;;-10.09;71.05
34506;BME280;20748;42.632;23.198;2023-02-10T06:02:20;93458.09;;;-10.07;71.23
34506;BME280;20748;42.632;23.198;2023-02-10T06:04:52;93463.56;;;-10.12;71.51
34506;BME280;20748;42.632;23.198;2023-02-10T06:07:26;93461.53;;;-10.08;71.74
34506;BME280;20748;42.632;23.198;2023-02-10T06:09:58;93473.75;;;-10.04;72.04
34506;BME280;20748;42.632;23.198;2023-02-10T06:12:31;93472.69;;;-10.01;71.40
34506;BME280;20748;42.632;23.198;2023-02-10T06:15:05;93478.25;;;-9.98;71.18
34506;BME280;20748;42.632;23.198;2023-02-10T06:17:37;93480.41;;;-10.03;70.85
34506;BME280;20748;42.632;23.198;2023-02-10T06:20:10;93482.00;;;-10.12;70.92
34506;BME280;20748;42.632;23.198;2023-02-10T06:22:43;93479.63;;;-10.03;70.41
34506;BME280;20748;42.632;23.198;2023-02-10T06:25:16;93484.25;;;-9.99;71.21
34506;BME280;20748;42.632;23.198;2023-02-10T06:27:48;93491.41;;;-9.94;71.50
34506;BME280;20748;42.632;23.198;2023-02-10T06:30:21;93492.22;;;-9.93;71.42
34506;BME280;20748;42.632;23.198;2023-02-10T06:32:55;93493.00;;;-9.93;72.13
34506;BME280;20748;42.632;23.198;2023-02-10T06:35:28;93481.31;;;-9.94;72.46
34506;BME280;20748;42.632;23.198;2023-02-10T06:38:01;93485.69;;;-9.86;72.48
34506;BME280;20748;42.632;23.198;2023-02-10T06:40:33;93493.66;;;-9.81;73.23
34506;BME280;20748;42.632;23.198;2023-02-10T06:43:06;93488.47;;;-9.79;72.66
34506;BME280;20748;42.632;23.198;2023-02-10T06:45:38;93487.50;;;-9.68;73.50
34506;BME280;20748;42.632;23.198;2023-02-10T06:48:11;93487.91;;;-9.63;73.04
34506;BME280;20748;42.632;23.198;2023-02-10T06:50:43;93490.28;;;-9.62;74.20
34506;BME280;20748;42.632;23.198;2023-02-10T06:53:16;93501.31;;;-9.53;73.89
34506;BME280;20748;42.632;23.198;2023-02-10T06:55:49;93492.09;;;-9.44;74.96
34506;BME280;20748;42.632;23.198;2023-02-10T06:58:22;93498.81;;;-9.35;76.10
34506;BME280;20748;42.632;23.198;2023-02-10T07:00:54;93482.22;;;-9.37;75.34
34506;BME280;20748;42.632;23.198;2023-02-10T07:03:28;93502.88;;;-9.14;76.11
34506;BME280;20748;42.632;23.198;2023-02-10T07:06:00;93504.34;;;-9.11;76.18
34506;BME280;20748;42.632;23.198;2023-02-10T07:08:34;93510.97;;;-9.10;77.34
34506;BME280;20748;42.632;23.198;2023-02-10T07:11:07;93494.72;;;-9.08;77.40
34506;BME280;20748;42.632;23.198;2023-02-10T07:13:39;93496.00;;;-8.94;78.00
34506;BME280;20748;42.632;23.198;2023-02-10T07:16:12;93493.97;;;-8.90;77.89
34506;BME280;20748;42.632;23.198;2023-02-10T07:18:46;93494.34;;;-8.85;77.68
34506;BME280;20748;42.632;23.198;2023-02-10T07:21:19;93491.63;;;-8.73;77.14
34506;BME280;20748;42.632;23.198;2023-02-10T07:23:52;93491.91;;;-8.58;77.68
34506;BME280;20748;42.632;23.198;2023-02-10T07:26:24;93490.28;;;-8.41;78.13
34506;BME280;20748;42.632;23.198;2023-02-10T07:28:57;93489.63;;;-8.25;77.98
34506;BME280;20748;42.632;23.198;2023-02-10T07:31:29;93494.69;;;-8.07;79.23
34506;BME280;20748;42.632;23.198;2023-02-10T07:34:02;93489.59;;;-7.89;79.86
34506;BME280;20748;42.632;23.198;2023-02-10T07:36:36;93491.94;;;-7.69;84.13
34506;BME280;20748;42.632;23.198;2023-02-10T07:39:09;93488.56;;;-7.51;83.64
34506;BME280;20748;42.632;23.198;2023-02-10T07:41:42;93493.06;;;-7.37;83.01
34506;BME280;20748;42.632;23.198;2023-02-10T07:44:16;93474.09;;;-7.24;81.77
34506;BME280;20748;42.632;23.198;2023-02-10T07:46:51;93481.16;;;-7.02;80.57
34506;BME280;20748;42.632;23.198;2023-02-10T07:49:24;93483.13;;;-6.87;79.92
34506;BME280;20748;42.632;23.198;2023-02-10T07:51:58;93484.59;;;-6.68;79.36
34506;BME280;20748;42.632;23.198;2023-02-10T07:54:31;93490.31;;;-6.57;78.63
34506;BME280;20748;42.632;23.198;2023-02-10T07:57:04;93489.38;;;-6.56;76.16
34506;BME280;20748;42.632;23.198;2023-02-10T07:59:36;93488.91;;;-6.43;75.52
34506;BME280;20748;42.632;23.198;2023-02-10T08:02:10;93504.19;;;-6.35;74.75
34506;BME280;20748;42.632;23.198;2023-02-10T08:04:42;93503.72;;;-6.22;73.99
34506;BME280;20748;42.632;23.198;2023-02-10T08:07:15;93507.53;;;-6.01;73.88
34506;BME280;20748;42.632;23.198;2023-02-10T08:09:48;93507.50;;;-5.93;72.37
34506;BME280;20748;42.632;23.198;2023-02-10T08:12:20;93503.56;;;-5.87;71.24
34506;BME280;20748;42.632;23.198;2023-02-10T08:14:53;93500.81;;;-5.69;70.13
34506;BME280;20748;42.632;23.198;2023-02-10T08:17:26;93497.34;;;-5.76;70.91
34506;BME280;20748;42.632;23.198;2023-02-10T08:19:59;93489.19;;;-5.55;70.60
34506;BME280;20748;42.632;23.198;2023-02-10T08:22:31;93493.78;;;-5.50;69.87
34506;BME280;20748;42.632;23.198;2023-02-10T08:25:06;93498.03;;;-5.26;69.71
34506;BME280;20748;42.632;23.198;2023-02-10T08:27:38;93499.28;;;-5.14;69.35
34506;BME280;20748;42.632;23.198;2023-02-10T08:30:11;93486.03;;;-5.01;69.04
34506;BME280;20748;42.632;23.198;2023-02-10T08:32:43;93485.22;;;-5.01;68.92
34506;BME280;20748;42.632;23.198;2023-02-10T08:35:17;93490.72;;;-4.81;69.14
34506;BME280;20748;42.632;23.198;2023-02-10T08:37:49;93494.63;;;-4.70;67.87
34506;BME280;20748;42.632;23.198;2023-02-10T08:40:22;93493.06;;;-4.71;68.68
34506;BME280;20748;42.632;23.198;2023-02-10T08:42:55;93493.47;;;-4.59;68.07
34506;BME280;20748;42.632;23.198;2023-02-10T08:45:27;93504.59;;;-4.52;67.71
34506;BME280;20748;42.632;23.198;2023-02-10T08:48:00;93501.19;;;-4.44;67.26
34506;BME280;20748;42.632;23.198;2023-02-10T08:50:32;93488.69;;;-4.31;66.81
34506;BME280;20748;42.632;23.198;2023-02-10T08:53:05;93499.09;;;-4.17;66.38
34506;BME280;20748;42.632;23.198;2023-02-10T08:55:38;93498.09;;;-4.08;66.53
34506;BME280;20748;42.632;23.198;2023-02-10T08:58:10;93497.19;;;-3.92;66.63
34506;BME280;20748;42.632;23.198;2023-02-10T09:00:43;93492.34;;;-3.86;65.61
34506;BME280;20748;42.632;23.198;2023-02-10T09:03:16;93489.47;;;-3.83;64.68
34506;BME280;20748;42.632;23.198;2023-02-10T09:05:48;93494.16;;;-3.72;64.89
34506;BME280;20748;42.632;23.198;2023-02-10T09:08:21;93491.97;;;-3.60;63.93
34506;BME280;20748;42.632;23.198;2023-02-10T09:10:55;93491.38;;;-3.47;64.25
34506;BME280;20748;42.632;23.198;2023-02-10T09:13:27;93492.44;;;-3.26;63.91
34506;BME280;20748;42.632;23.198;2023-02-10T09:15:59;93488.16;;;-3.26;63.10
34506;BME280;20748;42.632;23.198;2023-02-10T09:18:32;93495.09;;;-3.19;62.61
34506;BME280;20748;42.632;23.198;2023-02-10T09:21:04;93489.97;;;-3.04;62.62
34506;BME280;20748;42.632;23.198;2023-02-10T09:23:37;93464.09;;;-3.16;61.41
34506;BME280;20748;42.632;23.198;2023-02-10T09:26:10;93485.69;;;-3.04;61.27
34506;BME280;20748;42.632;23.198;2023-02-10T09:28:43;93479.22;;;-2.85;61.24
34506;BME280;20748;42.632;23.198;2023-02-10T09:31:16;93481.16;;;-2.72;60.49
34506;BME280;20748;42.632;23.198;2023-02-10T09:33:49;93486.50;;;-2.66;59.76
34506;BME280;20748;42.632;23.198;2023-02-10T09:36:21;93483.50;;;-2.55;60.09
34506;BME280;20748;42.632;23.198;2023-02-10T09:38:54;93484.47;;;-2.56;59.71
34506;BME280;20748;42.632;23.198;2023-02-10T09:41:40;93469.78;;;-2.32;60.19
34506;BME280;20748;42.632;23.198;2023-02-10T09:44:17;93471.69;;;-2.34;60.00
34506;BME280;20748;42.632;23.198;2023-02-10T09:47:03;93474.56;;;-2.22;59.36
34506;BME280;20748;42.632;23.198;2023-02-10T09:49:55;93479.16;;;-1.96;59.96
34506;BME280;20748;42.632;23.198;2023-02-10T09:52:39;93478.41;;;-1.90;58.64
34506;BME280;20748;42.632;23.198;2023-02-10T09:55:16;93474.75;;;-1.80;57.46
34506;BME280;20748;42.632;23.198;2023-02-10T09:57:56;93469.19;;;-1.84;57.67
34506;BME280;20748;42.632;23.198;2023-02-10T10:00:33;93471.53;;;-1.89;58.18
34506;BME280;20748;42.632;23.198;2023-02-10T10:03:10;93473.06;;;-1.66;58.61
34506;BME280;20748;42.632;23.198;2023-02-10T10:05:55;93456.41;;;-1.55;56.92
34506;BME280;20748;42.632;23.198;2023-02-10T10:08:34;93459.41;;;-1.52;56.61
34506;BME280;20748;42.632;23.198;2023-02-10T10:11:19;93462.44;;;-1.35;57.53
34506;BME280;20748;42.632;23.198;2023-02-10T10:13:55;93460.72;;;-1.27;55.81
34506;BME280;20748;42.632;23.198;2023-02-10T10:16:42;93430.72;;;-1.33;56.22
34506;BME280;20748;42.632;23.198;2023-02-10T10:19:26;93432.34;;;-1.32;55.59
34506;BME280;20748;42.632;23.198;2023-02-10T10:22:10;93443.50;;;-1.05;54.82
34506;BME280;20748;42.632;23.198;2023-02-10T10:25:00;93442.75;;;-0.92;55.14
34506;BME280;20748;42.632;23.198;2023-02-10T10:27:48;93437.81;;;-1.00;54.94
34506;BME280;20748;42.632;23.198;2023-02-10T10:30:32;93429.94;;;-0.92;54.58
34506;BME280;20748;42.632;23.198;2023-02-10T10:33:19;93432.22;;;-0.69;54.88
34506;BME280;20748;42.632;23.198;2023-02-10T10:35:53;93427.34;;;-0.43;55.08
34506;BME280;20748;42.632;23.198;2023-02-10T10:38:31;93433.25;;;-0.49;52.79
34506;BME280;20748;42.632;23.198;2023-02-10T10:41:07;93431.84;;;-0.52;53.61
34506;BME280;20748;42.632;23.198;2023-02-10T10:43:46;93428.72;;;-0.41;53.56
34506;BME280;20748;42.632;23.198;2023-02-10T10:46:26;93414.72;;;-0.45;53.08
34506;BME280;20748;42.632;23.198;2023-02-10T10:48:59;93424.38;;;-0.40;52.62
34506;BME280;20748;42.632;23.198;2023-02-10T10:51:32;93418.69;;;-0.15;53.36
34506;BME280;20748;42.632;23.198;2023-02-10T10:54:10;93396.81;;;-0.18;52.67
34506;BME280;20748;42.632;23.198;2023-02-10T10:56:48;93408.44;;;0.12;52.80
34506;BME280;20748;42.632;23.198;2023-02-10T10:59:27;93405.47;;;0.22;51.52
34506;BME280;20748;42.632;23.198;2023-02-10T11:02:11;93406.06;;;0.31;52.12
34506;BME280;20748;42.632;23.198;2023-02-10T11:04:44;93403.44;;;0.51;51.88
34506;BME280;20748;42.632;23.198;2023-02-10T11:07:19;93402.03;;;0.69;50.85
34506;BME280;20748;42.632;23.198;2023-02-10T11:09:54;93398.03;;;0.79;50.92
34506;BME280;20748;42.632;23.198;2023-02-10T11:12:31;93405.78;;;0.66;49.23
34506;BME280;20748;42.632;23.198;2023-02-10T11:18:18;93403.25;;;0.46;50.94
34506;BME280;20748;42.632;23.198;2023-02-10T11:20:54;93404.44;;;0.43;51.68
34506;BME280;20748;42.632;23.198;2023-02-10T11:23:28;93399.72;;;0.40;50.52
34506;BME280;20748;42.632;23.198;2023-02-10T11:26:02;93398.88;;;0.60;50.20
34506;BME280;20748;42.632;23.198;2023-02-10T11:28:35;93391.94;;;0.74;49.75
34506;BME280;20748;42.632;23.198;2023-02-10T11:31:21;93388.50;;;1.00;49.62
34506;BME280;20748;42.632;23.198;2023-02-10T11:33:57;93389.66;;;1.04;48.72
34506;BME280;20748;42.632;23.198;2023-02-10T11:36:34;93386.06;;;1.12;49.55
34506;BME280;20748;42.632;23.198;2023-02-10T11:39:17;93391.38;;;1.17;50.27
34506;BME280;20748;42.632;23.198;2023-02-10T11:41:52;93392.94;;;1.25;49.23
34506;BME280;20748;42.632;23.198;2023-02-10T11:44:27;93384.94;;;1.40;49.25
34506;BME280;20748;42.632;23.198;2023-02-10T11:47:02;93392.72;;;1.66;48.14
34506;BME280;20748;42.632;23.198;2023-02-10T11:49:42;93380.00;;;1.71;47.70
34506;BME280;20748;42.632;23.198;2023-02-10T11:52:16;93376.00;;;1.50;47.39
34506;BME280;20748;42.632;23.198;2023-02-10T11:54:49;93376.28;;;1.92;48.71
34506;BME280;20748;42.632;23.198;2023-02-10T11:57:31;93372.84;;;2.05;47.29
34506;BME280;20748;42.632;23.198;2023-02-10T12:00:29;93372.59;;;2.07;47.18
34506;BME280;20748;42.632;23.198;2023-02-10T12:03:31;93374.19;;;2.08;47.68
34506;BME280;20748;42.632;23.198;2023-02-10T12:06:14;93374.25;;;2.01;47.54
34506;BME280;20748;42.632;23.198;2023-02-10T12:08:56;93371.66;;;2.26;47.46
34506;BME280;20748;42.632;23.198;2023-02-10T12:11:40;93365.47;;;2.34;46.57
34506;BME280;20748;42.632;23.198;2023-02-10T12:14:30;93352.50;;;2.60;45.76
34506;BME280;20748;42.632;23.198;2023-02-10T12:17:13;93354.84;;;2.80;45.76
34506;BME280;20748;42.632;23.198;2023-02-10T12:19:59;93345.59;;;3.09;46.19
34506;BME280;20748;42.632;23.198;2023-02-10T12:22:57;93346.13;;;3.00;45.37
34506;BME280;20748;42.632;23.198;2023-02-10T12:25:38;93348.41;;;2.89;44.97
34506;BME280;20748;42.632;23.198;2023-02-10T12:28:22;93341.97;;;2.99;44.70
34506;BME280;20748;42.632;23.198;2023-02-10T12:31:04;93340.91;;;2.69;46.00
34506;BME280;20748;42.632;23.198;2023-02-10T12:34:02;93347.94;;;2.80;46.04
34506;BME280;20748;42.632;23.198;2023-02-10T12:36:44;93343.31;;;3.01;44.64
34506;BME280;20748;42.632;23.198;2023-02-10T12:39:23;93342.97;;;2.98;44.98
34506;BME280;20748;42.632;23.198;2023-02-10T12:42:05;93337.75;;;2.86;45.57
34506;BME280;20748;42.632;23.198;2023-02-10T12:44:48;93333.31;;;2.74;45.43
34506;BME280;20748;42.632;23.198;2023-02-10T12:47:32;93323.22;;;2.73;45.52
34506;BME280;20748;42.632;23.198;2023-02-10T12:50:25;93343.63;;;2.74;45.49
34506;BME280;20748;42.632;23.198;2023-02-10T12:53:04;93335.03;;;2.80;46.97
34506;BME280;20748;42.632;23.198;2023-02-10T12:55:42;93330.03;;;2.86;45.22
34506;BME280;20748;42.632;23.198;2023-02-10T12:58:19;93327.59;;;2.91;45.09
34506;BME280;20748;42.632;23.198;2023-02-10T13:00:57;93327.78;;;2.89;45.21
34506;BME280;20748;42.632;23.198;2023-02-10T13:03:34;93333.81;;;2.83;45.28
34506;BME280;20748;42.632;23.198;2023-02-10T13:06:25;93330.78;;;2.86;45.52
34506;BME280;20748;42.632;23.198;2023-02-10T13:09:03;93333.75;;;2.90;45.69
34506;BME280;20748;42.632;23.198;2023-02-10T13:11:47;93338.56;;;2.49;46.18
34506;BME280;20748;42.632;23.198;2023-02-10T13:14:25;93339.00;;;2.64;46.73
34506;BME280;20748;42.632;23.198;2023-02-10T13:16:59;93340.75;;;2.64;45.88
34506;BME280;20748;42.632;23.198;2023-02-10T13:19:38;93337.03;;;2.60;46.69
34506;BME280;20748;42.632;23.198;2023-02-10T13:22:18;93334.34;;;2.73;46.60
34506;BME280;20748;42.632;23.198;2023-02-10T13:25:00;93337.75;;;2.86;46.42
34506;BME280;20748;42.632;23.198;2023-02-10T13:27:49;93336.03;;;2.79;46.09
34506;BME280;20748;42.632;23.198;2023-02-10T13:30:47;93343.13;;;2.84;45.87
34506;BME280;20748;42.632;23.198;2023-02-10T13:33:28;93333.25;;;2.81;45.64
34506;BME280;20748;42.632;23.198;2023-02-10T13:36:09;93337.41;;;2.63;45.67
34506;BME280;20748;42.632;23.198;2023-02-10T13:38:43;93338.13;;;2.52;46.14